MSC Levina — 3FJR8 — position and weather

sailwx.info

Track history (hours):
 
Tides and Currents Weather Stations Pressure Air Temp Water Temp Dewpoint Dewpoint Depression Visibility Wind Speed Wind Dir Waves Ship Positions

MSC Levina

Last reported at 2014-Oct-14 09:29 UTC. Time now 2014-Oct-30 12:14 UTC.
Position N 36°53' W 076°21'.
Warning: this ship's position is 16 days out of date.

Length 227.6 m; beam 32.2 m; draft 12.1 m.

Type: Ship (hazmat cat A). MMSI: 355609000.

Date/timePositionNaut miles runAvg speedWind from/ knotsBaromVisibWave heightAir tempDewpointWater temp
2014-Oct-14 09:29N 36°53' W 076°21'0 0.0
2014-Oct-14 08:11N 36°53' W 076°21'0 0.0
2014-Oct-14 06:17N 36°53' W 076°21'0 0.0
2014-Oct-14 05:20N 36°53' W 076°21'0 0.0
2014-Oct-14 03:29N 36°53' W 076°21'0 0.0
2014-Oct-13 21:16N 36°53' W 076°21'3 3.8
2014-Oct-13 20:32N 36°56' W 076°20'1010.5
2014-Oct-13 19:33N 36°59' W 076°08'1412.3
2014-Oct-13 18:24N 36°53' W 075°52'9 9.9
2014-Oct-13 17:27N 36°48' W 075°42'1212.9
2014-Oct-13 16:31N 36°40' W 075°31'23 0.5
2014-Oct-11 15:19N 36°53' W 075°54'1012.6
2014-Oct-11 14:30N 37°01' W 076°02'1414.4
2014-Oct-11 13:33N 37°14' W 076°08'1616.4
2014-Oct-11 12:33N 37°29' W 076°03'8116.2
2014-Oct-11 07:33N 38°49' W 076°25'1815.5
2014-Oct-11 06:25N 39°06' W 076°24'1011.9
2014-Oct-11 05:33N 39°14' W 076°33'1 1.4
2014-Oct-11 04:33N 39°15' W 076°33'0 0.0
2014-Oct-11 03:31N 39°15' W 076°33'0 0.0
2014-Oct-11 02:31N 39°15' W 076°33'0 0.0
2014-Oct-11 01:31N 39°15' W 076°33'0 0.0
2014-Oct-11 00:31N 39°15' W 076°33'0 0.0
2014-Oct-10 23:31N 39°15' W 076°33'0 0.0
2014-Oct-10 22:31N 39°15' W 076°33'0 0.0
2014-Oct-10 21:31N 39°15' W 076°33'0 0.0
2014-Oct-10 20:31N 39°15' W 076°33'0 0.0
2014-Oct-10 19:31N 39°15' W 076°33'0 0.0
2014-Oct-10 18:31N 39°15' W 076°33'0 0.0
2014-Oct-10 17:31N 39°15' W 076°33'0 0.1
2014-Oct-10 16:33N 39°15' W 076°33'6 5.6
2014-Oct-10 15:33N 39°11' W 076°28'1111.0
2014-Oct-10 14:33N 39°01' W 076°23'1515.1
2014-Oct-10 13:33N 38°46' W 076°26'8315.4
2014-Oct-10 08:10N 37°25' W 076°05'1115.6
2014-Oct-10 07:29N 37°14' W 076°08'1414.7
2014-Oct-10 06:33N 37°01' W 076°03'1010.5
2014-Oct-10 05:33N 36°54' W 075°54'9 9.5
2014-Oct-10 04:33N 36°49' W 075°43'7 6.1
2014-Oct-10 03:28N 36°52' W 075°36'18215.2
2014-Oct-09 15:33N 39°34' W 073°52'1817.6
2014-Oct-09 14:32N 39°52' W 073°51'1817.4
2014-Oct-09 13:31N 40°10' W 073°50'1814.5
2014-Oct-09 12:17N 40°27' W 073°50'1013.6
2014-Oct-09 11:34N 40°32' W 074°02'8 8.1
2014-Oct-09 10:33N 40°39' W 074°08'3 2.7
2014-Oct-09 09:33N 40°41' W 074°09'0 0.0
2014-Oct-09 08:33N 40°41' W 074°09'0 0.0
2014-Oct-09 07:33N 40°41' W 074°09'0 0.0
2014-Oct-09 06:33N 40°41' W 074°09'0 0.0
2014-Oct-09 05:33N 40°41' W 074°09'0 0.0
2014-Oct-09 04:33N 40°41' W 074°09'0 0.0
2014-Oct-09 03:33N 40°41' W 074°09'0 0.0
2014-Oct-09 02:33N 40°41' W 074°09'0 0.0
2014-Oct-09 01:33N 40°41' W 074°09'0 0.0
2014-Oct-09 00:33N 40°41' W 074°09'0 0.0
2014-Oct-08 23:33N 40°41' W 074°09'0 0.0
2014-Oct-08 22:33N 40°41' W 074°09'0 0.0
2014-Oct-08 21:33N 40°41' W 074°09'0 0.0
2014-Oct-08 20:27N 40°41' W 074°09'0 0.0
2014-Oct-08 19:33N 40°41' W 074°09'0 0.0
2014-Oct-08 18:33N 40°41' W 074°09'0 0.0
2014-Oct-08 17:33N 40°41' W 074°09'0 0.0
2014-Oct-08 16:33N 40°41' W 074°09'1 1.0
2014-Oct-08 15:33N 40°41' W 074°08'4 3.7
2014-Oct-08 14:33N 40°39' W 074°04'1110.7
2014-Oct-08 13:33N 40°30' W 073°56'12 9.8
2014-Oct-08 12:20N 40°27' W 073°41'1612.9
2014-Oct-08 11:07N 40°29' W 073°20'1413.9
2014-Oct-08 10:06N 40°31' W 073°02'814.2
2014-Oct-08 09:33N 40°33' W 072°52'1515.0
2014-Oct-08 08:33N 40°31' W 072°32'1414.5
2014-Oct-08 07:33N 40°31' W 072°13'1514.9
2014-Oct-08 06:33N 40°31' W 071°54'1414.4
2014-Oct-08 05:33N 40°32' W 071°35'1414.4
2014-Oct-08 04:34N 40°32' W 071°16'1414.2
2014-Oct-08 03:33N 40°33' W 070°57'1414.0
2014-Oct-08 02:33N 40°33' W 070°39'1010.3
2014-Oct-08 01:33N 40°34' W 070°25'2 1.5
2014-Oct-08 00:34N 40°33' W 070°24'1312.8
2014-Oct-07 23:33N 40°34' W 070°07'1414.2
2014-Oct-07 22:33N 40°34' W 069°48'1515.2
2014-Oct-07 21:33N 40°35' W 069°28'1615.8
2014-Oct-07 20:32N 40°33' W 069°07'1515.4
2014-Oct-07 19:33N 40°31' W 068°47'3414.9
2014-Oct-07 17:14N 40°29' W 068°02'  
Track history (hours):
 
Tides and Currents Weather Stations Pressure Air Temp Water Temp Dewpoint Dewpoint Depression Visibility Wind Speed Wind Dir Waves Ship Positions

MSC Levina

Last reported at 2014-Oct-14 09:29 UTC. Time now 2014-Oct-30 12:14 UTC.
Position N 36°53' W 076°21'.
Warning: this ship's position is 16 days out of date.

Length 227.6 m; beam 32.2 m; draft 12.1 m.

Type: Ship (hazmat cat A). MMSI: 355609000.

Date/timePositionNaut miles runAvg speedWind from/ knotsBaromVisibWave heightAir tempDewpointWater temp
2014-Oct-14 09:29N 36°53' W 076°21'0 0.0
2014-Oct-14 08:11N 36°53' W 076°21'0 0.0
2014-Oct-14 06:17N 36°53' W 076°21'0 0.0
2014-Oct-14 05:20N 36°53' W 076°21'0 0.0
2014-Oct-14 03:29N 36°53' W 076°21'0 0.0
2014-Oct-13 21:16N 36°53' W 076°21'3 3.8
2014-Oct-13 20:32N 36°56' W 076°20'1010.5
2014-Oct-13 19:33N 36°59' W 076°08'1412.3
2014-Oct-13 18:24N 36°53' W 075°52'9 9.9
2014-Oct-13 17:27N 36°48' W 075°42'1212.9
2014-Oct-13 16:31N 36°40' W 075°31'23 0.5
2014-Oct-11 15:19N 36°53' W 075°54'1012.6
2014-Oct-11 14:30N 37°01' W 076°02'1414.4
2014-Oct-11 13:33N 37°14' W 076°08'1616.4
2014-Oct-11 12:33N 37°29' W 076°03'8116.2
2014-Oct-11 07:33N 38°49' W 076°25'1815.5
2014-Oct-11 06:25N 39°06' W 076°24'1011.9
2014-Oct-11 05:33N 39°14' W 076°33'1 1.4
2014-Oct-11 04:33N 39°15' W 076°33'0 0.0
2014-Oct-11 03:31N 39°15' W 076°33'0 0.0
2014-Oct-11 02:31N 39°15' W 076°33'0 0.0
2014-Oct-11 01:31N 39°15' W 076°33'0 0.0
2014-Oct-11 00:31N 39°15' W 076°33'0 0.0
2014-Oct-10 23:31N 39°15' W 076°33'0 0.0
2014-Oct-10 22:31N 39°15' W 076°33'0 0.0
2014-Oct-10 21:31N 39°15' W 076°33'0 0.0
2014-Oct-10 20:31N 39°15' W 076°33'0 0.0
2014-Oct-10 19:31N 39°15' W 076°33'0 0.0
2014-Oct-10 18:31N 39°15' W 076°33'0 0.0
2014-Oct-10 17:31N 39°15' W 076°33'0 0.1
2014-Oct-10 16:33N 39°15' W 076°33'6 5.6
2014-Oct-10 15:33N 39°11' W 076°28'1111.0
2014-Oct-10 14:33N 39°01' W 076°23'1515.1
2014-Oct-10 13:33N 38°46' W 076°26'8315.4
2014-Oct-10 08:10N 37°25' W 076°05'1115.6
2014-Oct-10 07:29N 37°14' W 076°08'1414.7
2014-Oct-10 06:33N 37°01' W 076°03'1010.5
2014-Oct-10 05:33N 36°54' W 075°54'9 9.5
2014-Oct-10 04:33N 36°49' W 075°43'7 6.1
2014-Oct-10 03:28N 36°52' W 075°36'18215.2
2014-Oct-09 15:33N 39°34' W 073°52'1817.6
2014-Oct-09 14:32N 39°52' W 073°51'1817.4
2014-Oct-09 13:31N 40°10' W 073°50'1814.5
2014-Oct-09 12:17N 40°27' W 073°50'1013.6
2014-Oct-09 11:34N 40°32' W 074°02'8 8.1
2014-Oct-09 10:33N 40°39' W 074°08'3 2.7
2014-Oct-09 09:33N 40°41' W 074°09'0 0.0
2014-Oct-09 08:33N 40°41' W 074°09'0 0.0
2014-Oct-09 07:33N 40°41' W 074°09'0 0.0
2014-Oct-09 06:33N 40°41' W 074°09'0 0.0
2014-Oct-09 05:33N 40°41' W 074°09'0 0.0
2014-Oct-09 04:33N 40°41' W 074°09'0 0.0
2014-Oct-09 03:33N 40°41' W 074°09'0 0.0
2014-Oct-09 02:33N 40°41' W 074°09'0 0.0
2014-Oct-09 01:33N 40°41' W 074°09'0 0.0
2014-Oct-09 00:33N 40°41' W 074°09'0 0.0
2014-Oct-08 23:33N 40°41' W 074°09'0 0.0
2014-Oct-08 22:33N 40°41' W 074°09'0 0.0
2014-Oct-08 21:33N 40°41' W 074°09'0 0.0
2014-Oct-08 20:27N 40°41' W 074°09'0 0.0
2014-Oct-08 19:33N 40°41' W 074°09'0 0.0
2014-Oct-08 18:33N 40°41' W 074°09'0 0.0
2014-Oct-08 17:33N 40°41' W 074°09'0 0.0
2014-Oct-08 16:33N 40°41' W 074°09'1 1.0
2014-Oct-08 15:33N 40°41' W 074°08'4 3.7
2014-Oct-08 14:33N 40°39' W 074°04'1110.7
2014-Oct-08 13:33N 40°30' W 073°56'12 9.8
2014-Oct-08 12:20N 40°27' W 073°41'1612.9
2014-Oct-08 11:07N 40°29' W 073°20'1413.9
2014-Oct-08 10:06N 40°31' W 073°02'814.2
2014-Oct-08 09:33N 40°33' W 072°52'1515.0
2014-Oct-08 08:33N 40°31' W 072°32'1414.5
2014-Oct-08 07:33N 40°31' W 072°13'1514.9
2014-Oct-08 06:33N 40°31' W 071°54'1414.4
2014-Oct-08 05:33N 40°32' W 071°35'1414.4
2014-Oct-08 04:34N 40°32' W 071°16'1414.2
2014-Oct-08 03:33N 40°33' W 070°57'1414.0
2014-Oct-08 02:33N 40°33' W 070°39'1010.3
2014-Oct-08 01:33N 40°34' W 070°25'2 1.5
2014-Oct-08 00:34N 40°33' W 070°24'1312.8
2014-Oct-07 23:33N 40°34' W 070°07'1414.2
2014-Oct-07 22:33N 40°34' W 069°48'1515.2
2014-Oct-07 21:33N 40°35' W 069°28'1615.8
2014-Oct-07 20:32N 40°33' W 069°07'1515.4
2014-Oct-07 19:33N 40°31' W 068°47'3414.9
2014-Oct-07 17:14N 40°29' W 068°02'  

Dump ship's entire track history